X  SluitMETAR luchtvaart weer gegevens      EHDL Deelen Air Base

Temperatuur

24°C Temperatuur

12°C Dauwpunt

47% Vochtigheid



Wind

13 KM/U

 8 MPH

 4 M/S

 7 KTS



190°
Het Zuiden
Huidig weer

Veel verspreide wolken Veel verspreide wolken
Luchtdruk 1018.92 (hPa) - 30.09 (in)
Zicht 6.2 (mi) - 10 (km)
Vliegveld
Vliegveld code EHDL

Locatie Deelen Air Base 14 (km)

Metar:
EHDL 171225Z AUTO 19007KT 120V230 9999 SCT050 24/12 Q1019 BLU

Tijd: 2019-06-17 14:25